createdAt,value
2023-03-11T00:00:00.926Z,1.1
2023-03-11T00:01:00.700Z,1.1
2023-03-11T00:02:00.678Z,1.1
2023-03-11T00:03:00.548Z,1.1
2023-03-11T00:04:00.539Z,1.1
2023-03-11T00:05:00.529Z,1.1
2023-03-11T00:06:00.491Z,1.1
2023-03-11T00:07:00.485Z,1.1
2023-03-11T00:08:00.476Z,1.1
2023-03-11T00:09:00.480Z,1.1
2023-03-11T00:10:00.632Z,1.1
2023-03-11T00:11:00.501Z,1.1
2023-03-11T00:12:00.638Z,1.1
2023-03-11T00:13:00.806Z,1.1
2023-03-11T00:14:00.508Z,1.1
2023-03-11T00:15:00.516Z,1.1
2023-03-11T00:16:00.491Z,1.1
2023-03-11T00:17:00.490Z,1.1
2023-03-11T00:18:00.480Z,1.1
2023-03-11T00:19:00.496Z,1.1
2023-03-11T00:20:00.593Z,1.1
2023-03-11T00:21:00.489Z,1.1
2023-03-11T00:22:00.485Z,1.1
2023-03-11T00:23:00.514Z,1.1
2023-03-11T00:24:00.553Z,1.1
2023-03-11T00:25:00.571Z,1.1
2023-03-11T00:26:00.673Z,1.1
2023-03-11T00:27:00.744Z,1.1
2023-03-11T00:28:00.630Z,1.1
2023-03-11T00:29:00.742Z,1.1
2023-03-11T00:30:00.856Z,1.1
2023-03-11T00:31:00.714Z,1.1
2023-03-11T00:32:00.672Z,1.1
2023-03-11T00:33:00.647Z,1.1
2023-03-11T00:34:00.613Z,1.1
2023-03-11T00:35:00.712Z,1.1
2023-03-11T00:36:00.720Z,1.1
2023-03-11T00:37:00.636Z,1.1
2023-03-11T00:38:01.446Z,1.1
2023-03-11T00:39:00.762Z,1.1
2023-03-11T00:40:00.953Z,1.1
2023-03-11T00:41:00.832Z,1.1
2023-03-11T00:42:01.479Z,1.1
2023-03-11T00:43:00.779Z,1.1
2023-03-11T00:44:00.780Z,1.1
2023-03-11T00:45:00.858Z,1.1
2023-03-11T00:46:00.724Z,1.1
2023-03-11T00:47:00.735Z,1.1
2023-03-11T00:48:00.686Z,1.1
2023-03-11T00:49:00.730Z,1.1
2023-03-11T00:50:00.919Z,1.1
2023-03-11T00:51:00.631Z,1.1
2023-03-11T00:52:00.550Z,1.1
2023-03-11T00:53:00.599Z,1.1
2023-03-11T00:54:00.754Z,1.1
2023-03-11T00:55:00.677Z,1.1
2023-03-11T00:56:00.579Z,1.1
2023-03-11T00:57:00.572Z,1.1
2023-03-11T00:58:00.523Z,1.1
2023-03-11T00:59:00.518Z,1.1
2023-03-11T01:00:00.759Z,1.1
2023-03-11T01:01:00.584Z,1.1
2023-03-11T01:02:00.517Z,1.1
2023-03-11T01:03:00.529Z,1.1
2023-03-11T01:04:00.536Z,1.1
2023-03-11T01:05:00.615Z,1.1
2023-03-11T01:06:00.529Z,1.1
2023-03-11T01:07:00.602Z,1.1
2023-03-11T01:08:00.634Z,1.1
2023-03-11T01:09:01.280Z,1.1
2023-03-11T01:10:00.638Z,1.1
2023-03-11T01:11:00.530Z,1.1
2023-03-11T01:12:00.532Z,1.1
2023-03-11T01:13:00.601Z,1.1
2023-03-11T01:14:00.529Z,1.1
2023-03-11T01:15:00.637Z,1.1
2023-03-11T01:16:00.557Z,1.1
2023-03-11T01:17:00.518Z,1.1
2023-03-11T01:18:00.527Z,1.1
2023-03-11T01:19:00.571Z,1.1
2023-03-11T01:20:00.635Z,1.1
2023-03-11T01:21:00.570Z,1.1
2023-03-11T01:22:00.517Z,1.1
2023-03-11T01:23:00.559Z,1.1
2023-03-11T01:24:00.550Z,1.1
2023-03-11T01:25:00.576Z,1.1
2023-03-11T01:26:00.558Z,1.1
2023-03-11T01:27:00.558Z,1.1
2023-03-11T01:28:00.538Z,1.1
2023-03-11T01:29:00.523Z,1.1
2023-03-11T01:30:00.643Z,1.1
2023-03-11T01:31:00.563Z,1.1
2023-03-11T01:32:00.573Z,1.1
2023-03-11T01:33:00.541Z,1.1
2023-03-11T01:34:00.541Z,1.1
2023-03-11T01:35:00.678Z,1.1
2023-03-11T01:36:00.607Z,1.1
2023-03-11T01:37:00.554Z,1.1
2023-03-11T01:38:00.544Z,1.1
2023-03-11T01:39:00.528Z,1.1
2023-03-11T01:40:00.588Z,1.1
2023-03-11T01:41:00.557Z,1.1
2023-03-11T01:42:00.577Z,1.1
2023-03-11T01:43:00.547Z,1.1
2023-03-11T01:44:00.538Z,1.1
2023-03-11T01:45:00.617Z,1.1
2023-03-11T01:46:00.585Z,1.1
2023-03-11T01:47:00.578Z,1.1
2023-03-11T01:48:00.542Z,1.1
2023-03-11T01:49:00.565Z,1.1
2023-03-11T01:50:00.566Z,1.1
2023-03-11T01:51:00.565Z,1.1
2023-03-11T01:52:00.542Z,1.1
2023-03-11T01:53:00.561Z,1.1
2023-03-11T01:54:00.564Z,1.1
2023-03-11T01:55:00.575Z,1.1
2023-03-11T01:56:00.571Z,1.1
2023-03-11T01:57:00.573Z,1.1
2023-03-11T01:58:00.556Z,1.1
2023-03-11T01:59:00.550Z,1.1
2023-03-11T02:00:00.761Z,1.1
2023-03-11T02:01:00.599Z,1.1
2023-03-11T02:02:00.775Z,1.1
2023-03-11T02:03:00.692Z,1.1
2023-03-11T02:04:00.897Z,1.1
2023-03-11T02:05:02.001Z,1.1
2023-03-11T02:06:00.620Z,1.1
2023-03-11T02:07:00.593Z,1.1
2023-03-11T02:08:00.648Z,1.1
2023-03-11T02:09:00.638Z,1.1
2023-03-11T02:10:00.826Z,1.1
2023-03-11T02:11:01.762Z,1.1
2023-03-11T02:12:00.600Z,1.1
2023-03-11T02:13:00.630Z,1.1
2023-03-11T02:14:00.655Z,1.1
2023-03-11T02:15:00.637Z,1.1
2023-03-11T02:16:00.791Z,1.1
2023-03-11T02:17:00.685Z,1.1
2023-03-11T02:18:00.597Z,1.1
2023-03-11T02:19:00.602Z,1.1
2023-03-11T02:20:00.605Z,1.1
2023-03-11T02:21:00.609Z,1.1
2023-03-11T02:22:00.605Z,1.1
2023-03-11T02:23:00.595Z,1.1
2023-03-11T02:24:00.604Z,1.1
2023-03-11T02:25:00.611Z,1.1
2023-03-11T02:26:00.610Z,1.1
2023-03-11T02:27:00.618Z,1.1
2023-03-11T02:28:00.614Z,1.1
2023-03-11T02:29:00.617Z,1.1
2023-03-11T02:30:00.641Z,1.1
2023-03-11T02:31:00.703Z,1.1
2023-03-11T02:32:00.622Z,1.1
2023-03-11T02:33:00.601Z,1.1
2023-03-11T02:34:00.613Z,1.1
2023-03-11T02:35:00.658Z,1.1
2023-03-11T02:36:00.668Z,1.1
2023-03-11T02:37:00.624Z,1.1
2023-03-11T02:38:00.616Z,1.1
2023-03-11T02:39:00.616Z,1.1
2023-03-11T02:40:00.644Z,1.1
2023-03-11T02:41:00.627Z,1.1
2023-03-11T02:42:00.675Z,1.1
2023-03-11T02:43:00.621Z,1.1
2023-03-11T02:44:00.621Z,1.1
2023-03-11T02:45:00.711Z,1.1
2023-03-11T02:46:00.616Z,1.1
2023-03-11T02:47:00.687Z,1.1
2023-03-11T02:48:00.640Z,1.1
2023-03-11T02:49:00.653Z,1.1
2023-03-11T02:50:00.643Z,1.1
2023-03-11T02:51:00.605Z,1.1
2023-03-11T02:52:00.632Z,1.1
2023-03-11T02:53:00.624Z,1.1
2023-03-11T02:54:00.622Z,1.1
2023-03-11T02:55:00.671Z,1.1
2023-03-11T02:56:00.628Z,1.1
2023-03-11T02:57:00.627Z,1.1
2023-03-11T02:58:00.638Z,1.1
2023-03-11T02:59:00.633Z,1.1
2023-03-11T03:00:00.674Z,1.1
2023-03-11T03:01:01.497Z,1.1
2023-03-11T03:02:01.450Z,1.1
2023-03-11T03:03:01.433Z,1.1
2023-03-11T03:04:02.309Z,1.1
2023-03-11T03:05:01.443Z,1.1
2023-03-11T03:06:01.428Z,1.1
2023-03-11T03:07:01.442Z,1.1
2023-03-11T03:08:01.442Z,1.1
2023-03-11T03:09:01.446Z,1.1
2023-03-11T03:10:01.504Z,1.1
2023-03-11T03:11:02.267Z,1.1
2023-03-11T03:12:01.442Z,1.1
2023-03-11T03:13:01.463Z,1.1
2023-03-11T03:14:01.429Z,1.1
2023-03-11T03:15:01.429Z,1.1
2023-03-11T03:16:01.445Z,1.1
2023-03-11T03:17:01.597Z,1.1
2023-03-11T03:18:01.468Z,1.1
2023-03-11T03:19:01.454Z,1.1
2023-03-11T03:20:01.520Z,1.1
2023-03-11T03:21:01.449Z,1.1
2023-03-11T03:22:01.449Z,1.1
2023-03-11T03:23:01.450Z,1.1
2023-03-11T03:24:01.474Z,1.1
2023-03-11T03:25:01.495Z,1.1
2023-03-11T03:26:01.455Z,1.1
2023-03-11T03:27:01.454Z,1.1
2023-03-11T03:28:01.492Z,1.1
2023-03-11T03:29:01.455Z,1.1
2023-03-11T03:30:01.468Z,1.1
2023-03-11T03:31:01.477Z,1.1
2023-03-11T03:32:01.527Z,1.1
2023-03-11T03:33:02.186Z,1.1
2023-03-11T03:34:01.466Z,1.1
2023-03-11T03:35:01.468Z,1.1
2023-03-11T03:36:01.474Z,1.1
2023-03-11T03:37:01.489Z,1.1
2023-03-11T03:38:01.469Z,1.1
2023-03-11T03:39:01.469Z,1.1
2023-03-11T03:40:01.508Z,1.1
2023-03-11T03:41:01.724Z,1.1
2023-03-11T03:42:01.473Z,1.1
2023-03-11T03:43:01.449Z,1.1
2023-03-11T03:44:01.438Z,1.1
2023-03-11T03:45:01.455Z,1.1
2023-03-11T03:46:01.533Z,1.1
2023-03-11T03:47:01.460Z,1.1
2023-03-11T03:48:01.461Z,1.1
2023-03-11T03:49:01.448Z,1.1
2023-03-11T03:50:01.511Z,1.1
2023-03-11T03:51:01.464Z,1.1
2023-03-11T03:52:01.531Z,1.1
2023-03-11T03:53:01.633Z,1.1
2023-03-11T03:54:01.453Z,1.1
2023-03-11T03:55:01.474Z,1.1
2023-03-11T03:56:01.451Z,1.1
2023-03-11T03:57:01.477Z,1.1
2023-03-11T03:58:01.461Z,1.1
2023-03-11T03:59:01.468Z,1.1
2023-03-11T04:00:01.527Z,1.1
2023-03-11T04:01:01.471Z,1.1
2023-03-11T04:02:01.558Z,1.1
2023-03-11T04:03:01.565Z,1.1
2023-03-11T04:04:01.478Z,1.1
2023-03-11T04:05:01.492Z,1.1
2023-03-11T04:06:01.496Z,1.1
2023-03-11T04:07:01.474Z,1.1
2023-03-11T04:08:01.467Z,1.1
2023-03-11T04:09:01.495Z,1.1
2023-03-11T04:10:01.520Z,1.1
2023-03-11T04:11:01.469Z,1.1
2023-03-11T04:12:01.478Z,1.1
2023-03-11T04:13:01.474Z,1.1
2023-03-11T04:14:01.476Z,1.1
2023-03-11T04:15:01.501Z,1.1
2023-03-11T04:16:01.499Z,1.1
2023-03-11T04:17:01.511Z,1.1
2023-03-11T04:18:01.968Z,1.1
2023-03-11T04:19:01.570Z,1.1
2023-03-11T04:20:01.521Z,1.1
2023-03-11T04:21:01.498Z,1.1
2023-03-11T04:22:01.478Z,1.1
2023-03-11T04:23:01.499Z,1.1
2023-03-11T04:24:01.496Z,1.1
2023-03-11T04:25:01.519Z,1.1
2023-03-11T04:26:01.504Z,1.1
2023-03-11T04:27:01.485Z,1.1
2023-03-11T04:28:01.487Z,1.1
2023-03-11T04:29:01.500Z,1.1
2023-03-11T04:30:01.544Z,1.1
2023-03-11T04:31:01.638Z,1.1
2023-03-11T04:32:01.540Z,1.1
2023-03-11T04:33:01.498Z,1.1
2023-03-11T04:34:01.485Z,1.1
2023-03-11T04:35:01.515Z,1.1
2023-03-11T04:36:01.522Z,1.1
2023-03-11T04:37:01.486Z,1.1
2023-03-11T04:38:01.668Z,1.1
2023-03-11T04:39:01.503Z,1.1
2023-03-11T04:40:01.584Z,1.1
2023-03-11T04:41:01.495Z,1.1
2023-03-11T04:42:03.900Z,1.1
2023-03-11T04:43:01.504Z,1.1
2023-03-11T04:44:01.530Z,1.1
2023-03-11T04:45:01.543Z,1.1
2023-03-11T04:46:01.605Z,1.1
2023-03-11T04:47:01.548Z,1.1
2023-03-11T04:48:01.501Z,1.1
2023-03-11T04:49:01.519Z,1.1
2023-03-11T04:50:01.575Z,1.1
2023-03-11T04:51:01.692Z,1.1
2023-03-11T04:52:01.541Z,1.1
2023-03-11T04:53:01.563Z,1.1
2023-03-11T04:54:01.711Z,1.1
2023-03-11T04:55:01.580Z,1.1
2023-03-11T04:56:01.554Z,1.1
2023-03-11T04:57:01.678Z,1.1
2023-03-11T04:58:01.582Z,1.1
2023-03-11T04:59:01.604Z,1.1
2023-03-11T05:00:01.645Z,1.1
2023-03-11T05:01:01.633Z,1.1
2023-03-11T05:02:01.609Z,1.1
2023-03-11T05:03:01.709Z,1.1
2023-03-11T05:04:01.646Z,1.1
2023-03-11T05:05:01.720Z,1.1
2023-03-11T05:06:01.681Z,1.1
2023-03-11T05:07:01.627Z,1.1
2023-03-11T05:08:01.641Z,1.1
2023-03-11T05:09:02.383Z,1.1
2023-03-11T05:10:01.662Z,1.1
2023-03-11T05:11:01.682Z,1.1
2023-03-11T05:12:01.685Z,1.1
2023-03-11T05:13:01.664Z,1.1
2023-03-11T05:14:01.584Z,1.1
2023-03-11T05:15:01.569Z,1.1
2023-03-11T05:16:01.652Z,1.1
2023-03-11T05:17:01.711Z,1.1
2023-03-11T05:18:01.614Z,1.1
2023-03-11T05:19:01.574Z,1.1
2023-03-11T05:20:01.565Z,1.1
2023-03-11T05:21:01.734Z,1.1
2023-03-11T05:22:01.578Z,1.1
2023-03-11T05:23:01.549Z,1.2
2023-03-11T05:24:01.568Z,1.4
2023-03-11T05:25:01.619Z,1.7
2023-03-11T05:26:01.541Z,2.1
2023-03-11T05:27:01.564Z,2.5
2023-03-11T05:28:01.549Z,3.1
2023-03-11T05:29:01.553Z,3.8
2023-03-11T05:30:01.584Z,4.6
2023-03-11T05:31:01.654Z,5.5
2023-03-11T05:32:01.568Z,6.6
2023-03-11T05:33:01.556Z,7.8
2023-03-11T05:34:01.549Z,9.2
2023-03-11T05:35:01.583Z,10.5
2023-03-11T05:36:01.600Z,11.9
2023-03-11T05:37:03.089Z,13.6
2023-03-11T05:38:01.573Z,15.3
2023-03-11T05:39:01.554Z,18.1
2023-03-11T05:40:01.577Z,20.9
2023-03-11T05:41:01.599Z,23.5
2023-03-11T05:42:01.583Z,25.6
2023-03-11T05:43:01.561Z,27.8
2023-03-11T05:44:01.571Z,32.9
2023-03-11T05:45:01.568Z,38.8
2023-03-11T05:46:01.601Z,44.8
2023-03-11T05:47:01.707Z,53
2023-03-11T05:48:01.568Z,62.7
2023-03-11T05:49:01.574Z,74.1
2023-03-11T05:50:01.576Z,83.5
2023-03-11T05:51:01.591Z,91.9
2023-03-11T05:52:01.625Z,96.4
2023-03-11T05:53:01.574Z,101.1
2023-03-11T05:54:01.595Z,106
2023-03-11T05:55:01.593Z,113.9
2023-03-11T05:56:00.489Z,125.4
2023-03-11T05:57:00.495Z,138
2023-03-11T05:58:00.556Z,155.5
2023-03-11T05:59:00.480Z,177.3
2023-03-11T06:00:00.502Z,195.2
2023-03-11T06:01:00.530Z,219.9
2023-03-11T06:02:00.481Z,239.2
2023-03-11T06:03:00.504Z,247.9
2023-03-11T06:04:00.576Z,247.9
2023-03-11T06:05:00.642Z,247.9
2023-03-11T06:06:00.497Z,250.9
2023-03-11T06:07:00.519Z,263.2
2023-03-11T06:08:00.522Z,279.4
2023-03-11T06:09:00.491Z,303.8
2023-03-11T06:10:00.503Z,326.4
2023-03-11T06:11:00.526Z,342.4
2023-03-11T06:12:00.501Z,350.6
2023-03-11T06:13:00.523Z,342.4
2023-03-11T06:14:00.494Z,342.4
2023-03-11T06:15:00.494Z,350.6
2023-03-11T06:16:00.567Z,367.8
2023-03-11T06:17:00.510Z,399.9
2023-03-11T06:18:00.516Z,429.7
2023-03-11T06:19:00.513Z,445.4
2023-03-11T06:20:00.515Z,467.2
2023-03-11T06:21:00.538Z,484.3
2023-03-11T06:22:00.521Z,490.1
2023-03-11T06:23:00.502Z,502
2023-03-11T06:24:00.508Z,514.1
2023-03-11T06:25:00.510Z,490.1
2023-03-11T06:26:00.525Z,502
2023-03-11T06:27:00.513Z,514.1
2023-03-11T06:28:00.506Z,508
2023-03-11T06:29:00.508Z,526.6
2023-03-11T06:30:00.507Z,545.8
2023-03-11T06:31:00.529Z,593.4
2023-03-11T06:32:00.508Z,645.3
2023-03-11T06:33:00.538Z,668.8
2023-03-11T06:34:00.534Z,727.2
2023-03-11T06:35:00.510Z,849.6
2023-03-11T06:36:00.624Z,957.5
2023-03-11T06:37:00.551Z,946.1
2023-03-11T06:38:00.522Z,880.6
2023-03-11T06:39:00.541Z,819.6
2023-03-11T06:40:00.534Z,809.9
2023-03-11T06:41:00.533Z,839.5
2023-03-11T06:42:00.514Z,891.2
2023-03-11T06:43:00.535Z,969
2023-03-11T06:44:00.542Z,992.5
2023-03-11T06:45:00.537Z,1004.4
2023-03-11T06:46:00.653Z,1041.1
2023-03-11T06:47:00.524Z,1118.6
2023-03-11T06:48:00.526Z,1216.2
2023-03-11T06:49:00.528Z,1260.7
2023-03-11T06:50:00.539Z,1245.7
2023-03-11T06:51:00.546Z,1159.4
2023-03-11T06:52:00.552Z,1159.4
2023-03-11T06:53:00.531Z,1216.2
2023-03-11T06:54:00.561Z,1275.8
2023-03-11T06:55:00.528Z,1338.3
2023-03-11T06:56:00.561Z,1403.9
2023-03-11T06:57:00.535Z,1508.3
2023-03-11T06:58:00.531Z,1582.3
2023-03-11T06:59:00.549Z,1679.7
2023-03-11T07:00:00.544Z,1826.4
2023-03-11T07:01:00.649Z,1870.6
2023-03-11T07:02:00.561Z,1915.9
2023-03-11T07:03:00.541Z,1985.8
2023-03-11T07:04:00.592Z,1985.8
2023-03-11T07:05:00.557Z,2034
2023-03-11T07:06:00.569Z,1985.8
2023-03-11T07:07:00.563Z,2159.2
2023-03-11T07:08:00.568Z,2159.2
2023-03-11T07:09:00.556Z,2159.2
2023-03-11T07:10:00.571Z,2159.2
2023-03-11T07:11:00.572Z,2108.2
2023-03-11T07:12:00.557Z,2009.8
2023-03-11T07:13:00.560Z,2009.8
2023-03-11T07:14:00.583Z,1915.9
2023-03-11T07:15:00.580Z,1870.6
2023-03-11T07:16:00.553Z,1893.1
2023-03-11T07:17:00.606Z,1962.2
2023-03-11T07:18:00.563Z,2034
2023-03-11T07:19:00.592Z,2034
2023-03-11T07:20:00.582Z,2058.4
2023-03-11T07:21:00.589Z,2083.2
2023-03-11T07:22:00.573Z,2108.2
2023-03-11T07:23:00.565Z,2058.4
2023-03-11T07:24:00.599Z,2009.8
2023-03-11T07:25:00.606Z,1985.8
2023-03-11T07:26:00.567Z,1962.2
2023-03-11T07:27:00.570Z,1870.6
2023-03-11T07:28:00.575Z,1826.4
2023-03-11T07:29:00.574Z,1783.3
2023-03-11T07:30:00.589Z,1826.4
2023-03-11T07:31:00.582Z,1893.1
2023-03-11T07:32:00.647Z,1985.8
2023-03-11T07:33:00.766Z,2133.6
2023-03-11T07:34:00.600Z,2319.9
2023-03-11T07:35:00.592Z,2404.6
2023-03-11T07:36:00.730Z,2404.6
2023-03-11T07:37:00.577Z,2347.8
2023-03-11T07:38:00.593Z,2376
2023-03-11T07:39:02.548Z,2492.4
2023-03-11T07:40:00.605Z,2677.9
2023-03-11T07:41:00.610Z,2842.8
2023-03-11T07:42:00.581Z,3018
2023-03-11T07:43:00.604Z,3165.8
2023-03-11T07:44:00.584Z,3242.6
2023-03-11T07:45:00.605Z,3401.4
2023-03-11T07:46:00.662Z,3483.7
2023-03-11T07:47:00.585Z,3483.7
2023-03-11T07:48:00.593Z,3525.6
2023-03-11T07:49:00.608Z,3483.7
2023-03-11T07:50:00.618Z,3321.1
2023-03-11T07:51:00.606Z,3165.8
2023-03-11T07:52:00.608Z,3165.8
2023-03-11T07:53:00.603Z,3054.3
2023-03-11T07:54:00.617Z,2911.7
2023-03-11T07:55:00.632Z,2492.4
2023-03-11T07:56:00.613Z,2133.6
2023-03-11T07:57:00.938Z,1804.7
2023-03-11T07:58:00.627Z,1659.7
2023-03-11T07:59:00.599Z,1741
2023-03-11T08:00:00.618Z,1985.8
2023-03-11T08:01:00.613Z,2319.9
2023-03-11T08:02:00.619Z,2710.1
2023-03-11T08:03:00.604Z,3091.1
2023-03-11T08:04:00.687Z,3483.7
2023-03-11T08:05:00.625Z,3698.5
2023-03-11T08:06:00.619Z,3525.6
2023-03-11T08:07:00.623Z,3165.8
2023-03-11T08:08:00.606Z,2982.2
2023-03-11T08:09:00.609Z,2946.7
2023-03-11T08:10:00.628Z,2946.7
2023-03-11T08:11:00.631Z,2677.9
2023-03-11T08:12:00.613Z,2376
2023-03-11T08:13:00.616Z,2238.1
2023-03-11T08:14:00.609Z,2185.2
2023-03-11T08:15:00.648Z,2319.9
2023-03-11T08:16:00.689Z,2583.5
2023-03-11T08:17:00.609Z,2842.8
2023-03-11T08:18:00.611Z,2946.7
2023-03-11T08:19:00.630Z,2946.7
2023-03-11T08:20:00.637Z,3165.8
2023-03-11T08:21:00.636Z,3321.1
2023-03-11T08:22:00.617Z,3281.6
2023-03-11T08:23:00.617Z,3401.4
2023-03-11T08:24:00.626Z,3525.6
2023-03-11T08:25:00.640Z,3926.3
2023-03-11T08:26:00.671Z,4118.8
2023-03-11T08:27:00.651Z,3833.5
2023-03-11T08:28:00.629Z,3442.3
2023-03-11T08:29:00.647Z,3879.6
2023-03-11T08:30:00.649Z,4218.4
2023-03-11T08:31:00.760Z,3833.5
2023-03-11T08:32:00.634Z,3568
2023-03-11T08:33:00.631Z,3654.5
2023-03-11T08:34:00.648Z,2842.8
2023-03-11T08:35:00.642Z,3204.1
2023-03-11T08:36:00.770Z,3091.1
2023-03-11T08:37:00.727Z,2877.1
2023-03-11T08:38:00.696Z,2710.1
2023-03-11T08:39:00.854Z,2522.4
2023-03-11T08:40:00.714Z,2433.5
2023-03-11T08:41:00.760Z,2433.5
2023-03-11T08:42:00.765Z,2809
2023-03-11T08:43:00.721Z,3128.2
2023-03-11T08:44:00.829Z,2677.9
2023-03-11T08:45:00.738Z,2809
2023-03-11T08:46:00.900Z,2376
2023-03-11T08:47:00.841Z,2009.8
2023-03-11T08:48:00.830Z,2742.6
2023-03-11T08:49:01.356Z,1783.3
2023-03-11T08:50:00.751Z,1962.2
2023-03-11T08:51:00.865Z,1490.4
2023-03-11T08:52:00.829Z,1783.3
2023-03-11T08:53:00.782Z,2946.7
2023-03-11T08:54:00.842Z,3128.2
2023-03-11T08:55:00.659Z,2265.1
2023-03-11T08:56:00.661Z,3204.1
2023-03-11T08:57:00.716Z,3281.6
2023-03-11T08:58:00.822Z,3242.6
2023-03-11T08:59:00.837Z,3242.6
2023-03-11T09:00:00.692Z,3242.6
2023-03-11T09:01:00.820Z,3281.6
2023-03-11T09:02:00.732Z,3401.4
2023-03-11T09:03:00.835Z,3483.7
2023-03-11T09:04:00.669Z,3483.7
2023-03-11T09:05:00.673Z,3483.7
2023-03-11T09:06:00.774Z,3321.1
2023-03-11T09:07:00.694Z,3361
2023-03-11T09:08:00.664Z,3321.1
2023-03-11T09:09:00.664Z,3321.1
2023-03-11T09:10:00.699Z,3091.1
2023-03-11T09:11:00.685Z,2492.4
2023-03-11T09:12:00.691Z,2982.2
2023-03-11T09:13:00.691Z,1938.9
2023-03-11T09:14:00.667Z,2646
2023-03-11T09:15:00.668Z,3054.3
2023-03-11T09:16:00.698Z,3018
2023-03-11T09:17:00.693Z,3018
2023-03-11T09:18:00.674Z,2982.2
2023-03-11T09:19:00.675Z,2982.2
2023-03-11T09:20:00.687Z,3018
2023-03-11T09:21:00.715Z,2946.7
2023-03-11T09:22:00.707Z,2946.7
2023-03-11T09:23:00.699Z,2946.7
2023-03-11T09:24:00.686Z,2911.7
2023-03-11T09:25:00.686Z,2911.7
2023-03-11T09:26:00.704Z,2775.6
2023-03-11T09:27:00.703Z,2911.7
2023-03-11T09:28:00.690Z,2877.1
2023-03-11T09:29:01.456Z,2877.1
2023-03-11T09:30:00.688Z,2877.1
2023-03-11T09:31:00.701Z,2877.1
2023-03-11T09:32:00.714Z,2842.8
2023-03-11T09:33:00.690Z,2842.8
2023-03-11T09:34:00.706Z,2877.1
2023-03-11T09:35:00.705Z,2877.1
2023-03-11T09:36:00.744Z,2842.8
2023-03-11T09:37:00.733Z,2842.8
2023-03-11T09:38:00.704Z,2842.8
2023-03-11T09:39:00.702Z,2842.8
2023-03-11T09:40:00.697Z,2842.8
2023-03-11T09:41:00.701Z,2842.8
2023-03-11T09:42:00.728Z,2842.8
2023-03-11T09:43:00.707Z,2842.8
2023-03-11T09:44:00.707Z,2877.1
2023-03-11T09:45:00.735Z,2877.1
2023-03-11T09:46:00.729Z,2842.8
2023-03-11T09:47:00.800Z,2877.1
2023-03-11T09:48:00.717Z,2842.8
2023-03-11T09:49:00.735Z,2877.1
2023-03-11T09:50:00.728Z,2877.1
2023-03-11T09:51:00.736Z,2842.8
2023-03-11T09:52:00.842Z,2877.1
2023-03-11T09:53:00.731Z,2877.1
2023-03-11T09:54:00.733Z,2877.1
2023-03-11T09:55:00.719Z,2877.1
2023-03-11T09:56:00.713Z,2911.7
2023-03-11T09:57:00.747Z,2877.1
2023-03-11T09:58:00.811Z,2911.7
2023-03-11T09:59:00.717Z,2946.7
2023-03-11T10:00:00.733Z,2946.7
2023-03-11T10:01:00.720Z,2946.7
2023-03-11T10:02:00.807Z,2911.7
2023-03-11T10:03:00.810Z,2946.7
2023-03-11T10:04:00.721Z,2946.7
2023-03-11T10:05:00.723Z,2946.7
2023-03-11T10:06:00.748Z,2946.7
2023-03-11T10:07:00.742Z,2946.7
2023-03-11T10:08:00.746Z,2946.7
2023-03-11T10:09:00.750Z,2946.7
2023-03-11T10:10:00.733Z,2946.7
2023-03-11T10:11:00.758Z,2946.7
2023-03-11T10:12:00.727Z,2946.7
2023-03-11T10:13:00.761Z,2946.7
2023-03-11T10:14:00.726Z,2946.7
2023-03-11T10:15:00.760Z,2946.7
2023-03-11T10:16:00.797Z,2946.7
2023-03-11T10:17:00.795Z,2946.7
2023-03-11T10:18:00.737Z,2982.2
2023-03-11T10:19:00.800Z,2982.2
2023-03-11T10:20:00.760Z,2982.2
2023-03-11T10:21:00.743Z,2982.2
2023-03-11T10:22:00.754Z,2982.2
2023-03-11T10:23:00.742Z,2982.2
2023-03-11T10:24:00.759Z,3018
2023-03-11T10:25:00.749Z,3018
2023-03-11T10:26:00.754Z,3018
2023-03-11T10:27:00.748Z,3018
2023-03-11T10:28:00.746Z,3018
2023-03-11T10:29:00.784Z,3018
2023-03-11T10:30:00.755Z,3018
2023-03-11T10:31:00.772Z,3054.3
2023-03-11T10:32:00.875Z,3091.1
2023-03-11T10:33:00.753Z,3091.1
2023-03-11T10:34:00.774Z,3091.1
2023-03-11T10:35:00.760Z,3091.1
2023-03-11T10:36:00.831Z,3091.1
2023-03-11T10:37:00.777Z,3091.1
2023-03-11T10:38:00.762Z,3128.2
2023-03-11T10:39:00.778Z,3128.2
2023-03-11T10:40:00.760Z,3128.2
2023-03-11T10:41:00.792Z,3128.2
2023-03-11T10:42:00.788Z,3128.2
2023-03-11T10:43:00.765Z,3165.8
2023-03-11T10:44:00.762Z,3165.8
2023-03-11T10:45:00.768Z,3165.8
2023-03-11T10:46:00.797Z,3165.8
2023-03-11T10:47:00.783Z,3204.1
2023-03-11T10:48:00.763Z,3204.1
2023-03-11T10:49:00.781Z,3242.6
2023-03-11T10:50:00.762Z,3242.6
2023-03-11T10:51:00.787Z,3242.6
2023-03-11T10:52:00.782Z,3281.6
2023-03-11T10:53:00.787Z,3281.6
2023-03-11T10:54:00.769Z,3242.6
2023-03-11T10:55:00.784Z,3242.6
2023-03-11T10:56:00.827Z,3242.6
2023-03-11T10:57:00.798Z,3242.6
2023-03-11T10:58:00.777Z,3242.6
2023-03-11T10:59:00.790Z,3281.6
2023-03-11T11:00:00.772Z,3281.6
2023-03-11T11:01:00.863Z,3281.6
2023-03-11T11:02:00.888Z,3321.1
2023-03-11T11:03:00.790Z,3361
2023-03-11T11:04:00.926Z,3361
2023-03-11T11:05:00.790Z,2809
2023-03-11T11:06:00.814Z,3321.1
2023-03-11T11:07:00.789Z,2108.2
2023-03-11T11:08:00.818Z,3091.1
2023-03-11T11:09:00.791Z,3361
2023-03-11T11:10:00.796Z,3401.4
2023-03-11T11:11:00.829Z,3401.4
2023-03-11T11:12:00.788Z,3401.4
2023-03-11T11:13:00.836Z,3204.1
2023-03-11T11:14:00.816Z,2877.1
2023-03-11T11:15:00.798Z,3483.7
2023-03-11T11:16:00.824Z,1526.4
2023-03-11T11:17:00.856Z,3091.1
2023-03-11T11:18:00.801Z,3401.4
2023-03-11T11:19:00.821Z,3361
2023-03-11T11:20:00.824Z,3361
2023-03-11T11:21:00.829Z,3401.4
2023-03-11T11:22:00.809Z,3401.4
2023-03-11T11:23:00.831Z,3401.4
2023-03-11T11:24:00.828Z,3442.3
2023-03-11T11:25:00.838Z,3442.3
2023-03-11T11:26:00.812Z,3442.3
2023-03-11T11:27:00.830Z,3401.4
2023-03-11T11:28:00.825Z,3401.4
2023-03-11T11:29:00.835Z,3442.3
2023-03-11T11:30:00.838Z,3401.4
2023-03-11T11:31:00.877Z,3442.3
2023-03-11T11:32:00.818Z,3442.3
2023-03-11T11:33:00.819Z,3442.3
2023-03-11T11:34:00.851Z,3442.3
2023-03-11T11:35:00.842Z,3442.3
2023-03-11T11:36:00.824Z,3442.3
2023-03-11T11:37:00.822Z,3442.3
2023-03-11T11:38:00.840Z,3401.4
2023-03-11T11:39:00.836Z,3401.4
2023-03-11T11:40:00.850Z,3401.4
2023-03-11T11:41:00.845Z,3442.3
2023-03-11T11:42:00.821Z,3442.3
2023-03-11T11:43:00.844Z,3483.7
2023-03-11T11:44:00.853Z,3483.7
2023-03-11T11:45:00.834Z,3483.7
2023-03-11T11:46:00.856Z,3442.3
2023-03-11T11:47:00.827Z,3483.7
2023-03-11T11:48:00.829Z,3483.7
2023-03-11T11:49:00.829Z,3483.7
2023-03-11T11:50:00.855Z,3483.7
2023-03-11T11:51:00.856Z,3483.7
2023-03-11T11:52:00.834Z,3483.7
2023-03-11T11:53:00.850Z,3483.7
2023-03-11T11:54:00.837Z,3525.6
2023-03-11T11:55:00.847Z,3525.6
2023-03-11T11:56:00.822Z,3568
2023-03-11T11:57:00.768Z,3568
2023-03-11T11:58:00.753Z,3568
2023-03-11T11:59:00.711Z,3654.5
2023-03-11T12:00:00.702Z,3654.5
2023-03-11T12:01:00.675Z,3321.1
2023-03-11T12:02:00.642Z,2809
2023-03-11T12:03:00.606Z,2614.6
2023-03-11T12:04:00.683Z,3525.6
2023-03-11T12:05:00.569Z,2159.2
2023-03-11T12:06:00.607Z,2911.7
2023-03-11T12:07:00.501Z,3165.8
2023-03-11T12:08:00.456Z,3018
2023-03-11T12:09:00.443Z,3742.9
2023-03-11T12:10:09.784Z,3742.9
2023-03-11T12:11:00.448Z,3698.5
2023-03-11T12:12:00.427Z,3401.4
2023-03-11T12:13:00.429Z,3654.5
2023-03-11T12:14:00.455Z,3654.5
2023-03-11T12:15:00.426Z,3654.5
2023-03-11T12:16:00.477Z,3698.5
2023-03-11T12:17:01.962Z,3742.9
2023-03-11T12:18:00.428Z,3742.9
2023-03-11T12:19:00.446Z,3788
2023-03-11T12:20:00.456Z,3833.5
2023-03-11T12:21:00.456Z,3879.6
2023-03-11T12:22:00.434Z,3926.3
2023-03-11T12:23:00.437Z,3973.5
2023-03-11T12:24:00.462Z,4118.8
2023-03-11T12:25:00.455Z,4269.1
2023-03-11T12:26:00.472Z,4425
2023-03-11T12:27:00.458Z,4478.2
2023-03-11T12:28:00.435Z,4218.4
2023-03-11T12:29:00.441Z,3401.4
2023-03-11T12:30:00.460Z,3483.7
2023-03-11T12:31:00.536Z,3091.1
2023-03-11T12:32:00.459Z,2842.8
2023-03-11T12:33:00.445Z,3242.6
2023-03-11T12:34:00.456Z,4642
2023-03-11T12:35:00.466Z,3442.3
2023-03-11T12:36:00.657Z,3788
2023-03-11T12:37:00.456Z,4987.1
2023-03-11T12:38:00.451Z,4754.3
2023-03-11T12:39:00.480Z,4425
2023-03-11T12:40:00.460Z,4586.8
2023-03-11T12:41:00.480Z,4642
2023-03-11T12:42:00.455Z,4754.3
2023-03-11T12:43:00.456Z,4754.3
2023-03-11T12:44:00.483Z,4754.3
2023-03-11T12:45:00.480Z,4811.5
2023-03-11T12:46:00.486Z,5107.8
2023-03-11T12:47:00.602Z,5231.6
2023-03-11T12:48:00.463Z,5107.8
2023-03-11T12:49:00.458Z,4869.3
2023-03-11T12:50:00.463Z,4869.3
2023-03-11T12:51:00.762Z,4642
2023-03-11T12:52:00.480Z,4372.4
2023-03-11T12:53:00.493Z,4021.3
2023-03-11T12:54:00.484Z,3742.9
2023-03-11T12:55:01.167Z,3742.9
2023-03-11T12:56:00.497Z,3833.5
2023-03-11T12:57:00.475Z,3165.8
2023-03-11T12:58:00.498Z,3611.1
2023-03-11T12:59:00.478Z,3926.3
2023-03-11T13:00:00.525Z,2710.1
2023-03-11T13:01:00.499Z,2877.1
2023-03-11T13:02:00.527Z,2877.1
2023-03-11T13:03:00.635Z,4118.8
2023-03-11T13:04:00.511Z,3973.5
2023-03-11T13:05:00.495Z,3926.3